Time;durP1;ratioP1;P1;durP2;ratioP2;P2;SDS_P1;SDS_P2;PMS_P1;PMS_P2;Temp;Humidity;BMP_temperature;BMP_pressure;BME280_temperature;BME280_humidity;BME280_pressure;Samples;Min_cycle;Max_cycle;Signal;HPM_P1;HPM_P2
2022/10/05 00:00:51;;;;;;;16.35;6.22;;;;;;;19.27;53.18;100832.91;5122821;28;20048;-80
2022/10/05 00:03:21;;;;;;;10.55;5.20;;;;;;;19.25;53.04;100820.22;5118321;28;20065;-80
2022/10/05 00:05:48;;;;;;;13.32;6.25;;;;;;;19.30;53.20;100826.56;5115528;28;20058;-81
2022/10/05 00:08:23;;;;;;;15.50;6.53;;;;;;;19.36;53.35;100825.25;5098121;28;20050;-79
2022/10/05 00:10:51;;;;;;;14.63;6.57;;;;;;;19.29;53.09;100818.44;5109009;28;20489;-79
2022/10/05 00:13:24;;;;;;;14.90;5.85;;;;;;;19.18;53.42;100790.44;5110877;28;20055;-79
2022/10/05 00:16:06;;;;;;;14.60;5.97;;;;;;;19.46;53.45;100826.09;5102554;28;20052;-79
2022/10/05 00:18:33;;;;;;;12.52;6.38;;;;;;;19.47;53.18;100831.41;5108028;28;20055;-82
2022/10/05 00:21:00;;;;;;;15.02;8.38;;;;;;;19.47;53.40;100810.75;5116588;28;20403;-83
2022/10/05 00:23:31;;;;;;;16.70;8.85;;;;;;;19.39;53.46;100824.59;5114179;27;20441;-77
2022/10/05 00:26:10;;;;;;;14.38;8.25;;;;;;;18.90;53.27;100766.44;5108144;28;20047;-77
2022/10/05 00:28:39;;;;;;;17.30;8.27;;;;;;;19.07;54.08;100822.22;5108536;28;20043;-84
2022/10/05 00:31:15;;;;;;;15.25;7.07;;;;;;;18.99;54.18;100812.56;5113240;28;20461;-84
2022/10/05 00:33:42;;;;;;;12.63;6.55;;;;;;;19.10;54.69;100819.56;5098958;27;20054;-84
2022/10/05 00:36:09;;;;;;;13.27;6.47;;;;;;;19.05;54.76;100818.91;5100483;28;20043;-84
2022/10/05 00:38:36;;;;;;;10.85;5.93;;;;;;;19.02;55.35;100817.56;5113019;28;20044;-76
2022/10/05 00:41:37;;;;;;;17.48;6.55;;;;;;;18.76;55.58;100786.38;5104986;28;20410;-77
2022/10/05 00:44:10;;;;;;;14.82;6.25;;;;;;;19.04;55.32;100812.41;5106875;28;20486;-77
2022/10/05 00:46:55;;;;;;;10.85;5.55;;;;;;;19.12;55.20;100820.06;5109528;28;20065;-77
2022/10/05 00:50:00;;;;;;;12.15;6.13;;;;;;;19.14;55.18;100812.09;5102946;28;20048;-77
2022/10/05 00:52:35;;;;;;;16.40;6.30;;;;;;;19.17;55.30;100810.56;5112717;28;20059;-78
2022/10/05 00:55:25;;;;;;;12.82;6.15;;;;;;;18.94;55.19;100785.28;5108752;28;20051;-80
2022/10/05 00:57:58;;;;;;;10.23;5.65;;;;;;;19.15;55.29;100824.25;5106830;28;20501;-76
2022/10/05 01:00:26;;;;;;;15.75;6.65;;;;;;;19.16;55.42;100815.41;5094024;28;20056;-78
2022/10/05 01:02:59;;;;;;;14.40;6.70;;;;;;;19.19;55.35;100811.09;5101842;28;20043;-78
2022/10/05 01:05:47;;;;;;;11.90;5.97;;;;;;;19.20;55.12;100809.09;5114390;28;20055;-79
2022/10/05 01:08:17;;;;;;;11.75;5.32;;;;;;;19.05;55.57;100813.25;5113022;28;20050;-80
2022/10/05 01:10:51;;;;;;;11.73;5.97;;;;;;;18.97;56.02;100812.06;5114148;28;20051;-79
2022/10/05 01:13:27;;;;;;;12.80;5.45;;;;;;;18.90;56.49;100808.88;5114570;28;20056;-82
2022/10/05 01:16:03;;;;;;;11.05;6.07;;;;;;;18.98;56.08;100819.41;5098375;28;20056;-81
2022/10/05 01:18:49;;;;;;;15.05;6.28;;;;;;;18.49;55.88;100722.41;5094434;28;20052;-83
2022/10/05 01:21:21;;;;;;;17.73;6.57;;;;;;;18.87;56.14;100786.91;5094277;28;20118;-83
2022/10/05 01:24:13;;;;;;;13.65;6.50;;;;;;;19.02;56.08;100814.75;5094977;28;20074;-81
2022/10/05 01:27:03;;;;;;;13.05;6.43;;;;;;;19.04;55.67;100812.41;5097382;28;20044;-82
2022/10/05 01:29:48;;;;;;;13.82;5.97;;;;;;;19.09;55.30;100815.06;5100848;28;20044;-77
2022/10/05 01:32:30;;;;;;;11.75;6.15;;;;;;;18.99;55.77;100804.06;5102856;28;20047;-78
2022/10/05 01:35:06;;;;;;;13.38;6.38;;;;;;;18.97;55.80;100814.88;5098663;28;20047;-78
2022/10/05 01:37:40;;;;;;;8.40;5.63;;;;;;;18.99;55.77;100818.22;5107982;28;20521;-80
2022/10/05 01:40:14;;;;;;;13.00;8.23;;;;;;;18.67;55.50;100763.72;5109703;28;20047;-80
2022/10/05 01:42:44;;;;;;;16.35;8.23;;;;;;;18.92;55.08;100820.72;5100505;28;20070;-81
2022/10/05 01:45:46;;;;;;;18.77;9.32;;;;;;;18.67;55.28;100816.66;5108111;28;20051;-81
2022/10/05 01:48:15;;;;;;;17.40;8.85;;;;;;;18.62;55.07;100808.31;5084420;28;20090;-80
2022/10/05 01:51:01;;;;;;;20.27;10.30;;;;;;;18.46;55.47;100813.56;5110087;28;20040;-81
2022/10/05 01:53:41;;;;;;;18.65;9.25;;;;;;;17.92;55.50;100770.47;5111622;28;20047;-80
2022/10/05 01:56:40;;;;;;;19.67;9.23;;;;;;;18.27;55.70;100810.19;5108280;28;20051;-81
2022/10/05 01:59:17;;;;;;;22.13;8.45;;;;;;;18.11;55.46;100782.34;5090903;28;20457;-82
2022/10/05 02:01:53;;;;;;;16.90;8.45;;;;;;;18.17;55.70;100814.97;5104996;28;20051;-83
2022/10/05 02:04:34;;;;;;;20.58;9.32;;;;;;;18.02;55.93;100800.41;5109714;28;20043;-82
2022/10/05 02:07:34;;;;;;;17.50;8.15;;;;;;;17.73;56.38;100796.91;5111207;28;20055;-81
2022/10/05 02:10:13;;;;;;;16.05;8.30;;;;;;;17.67;56.71;100800.19;5111042;28;20039;-81
2022/10/05 02:12:41;;;;;;;22.02;9.02;;;;;;;17.39;56.86;100768.44;5109584;28;20044;-81
2022/10/05 02:15:16;;;;;;;15.02;8.55;;;;;;;17.50;56.80;100793.28;5101646;28;20524;-83
2022/10/05 02:17:47;;;;;;;19.70;8.80;;;;;;;17.40;56.54;100784.22;5110999;28;20421;-83
2022/10/05 02:20:22;;;;;;;17.20;8.00;;;;;;;17.51;56.44;100782.81;5111465;28;20063;-81
2022/10/05 02:22:53;;;;;;;19.67;9.25;;;;;;;17.49;56.47;100776.66;5108674;28;20497;-80
2022/10/05 02:25:37;;;;;;;14.85;8.82;;;;;;;17.51;56.96;100785.63;5108052;28;20050;-79
2022/10/05 02:28:17;;;;;;;20.70;9.77;;;;;;;17.60;56.80;100789.34;5108599;28;20394;-79
2022/10/05 02:30:51;;;;;;;16.63;9.27;;;;;;;17.51;57.14;100763.88;5106303;28;20044;-78
2022/10/05 02:33:37;;;;;;;20.38;9.18;;;;;;;17.48;56.84;100766.50;5109546;28;20052;-78
2022/10/05 02:36:33;;;;;;;16.48;8.95;;;;;;;17.62;57.01;100784.22;5107306;28;20119;-77
2022/10/05 02:39:09;;;;;;;19.58;9.70;;;;;;;17.58;57.33;100783.19;5109642;28;20055;-77
2022/10/05 02:41:46;;;;;;;17.67;9.00;;;;;;;17.48;57.09;100763.69;5109731;28;20044;-78
2022/10/05 02:44:22;;;;;;;11.75;7.25;;;;;;;17.63;57.19;100780.22;5081793;28;20052;-77
2022/10/05 02:46:54;;;;;;;18.55;8.38;;;;;;;17.60;57.27;100768.75;5112147;28;20485;-80
2022/10/05 02:49:23;;;;;;;14.75;6.70;;;;;;;17.69;57.92;100784.59;5108161;28;20035;-79
2022/10/05 02:52:02;;;;;;;11.27;6.45;;;;;;;17.73;57.72;100774.31;5111889;28;20052;-78
2022/10/05 02:54:38;;;;;;;16.38;7.03;;;;;;;17.63;57.67;100751.97;5115260;28;20056;-78
2022/10/05 02:57:17;;;;;;;13.93;7.63;;;;;;;17.84;57.50;100776.88;5107780;28;20520;-78
2022/10/05 03:00:03;;;;;;;12.00;6.68;;;;;;;17.90;57.20;100778.41;5114540;28;20044;-79
2022/10/05 03:02:42;;;;;;;15.15;7.10;;;;;;;17.86;57.49;100760.47;5110940;28;20059;-78
2022/10/05 03:05:16;;;;;;;11.80;6.05;;;;;;;18.02;57.63;100781.47;5095624;28;20050;-77
2022/10/05 03:08:20;;;;;;;12.77;6.43;;;;;;;18.00;57.40;100766.84;5104073;28;20059;-78
2022/10/05 03:11:03;;;;;;;18.50;7.03;;;;;;;18.06;57.23;100773.19;5078213;28;20411;-79
2022/10/05 03:13:48;;;;;;;14.40;6.38;;;;;;;17.98;57.45;100774.78;5108497;28;20108;-78
2022/10/05 03:16:37;;;;;;;10.18;5.68;;;;;;;17.87;57.90;100779.91;5100643;28;20056;-77
2022/10/05 03:19:21;;;;;;;11.48;6.40;;;;;;;17.83;57.80;100780.88;5115039;28;20059;-77
2022/10/05 03:21:59;;;;;;;12.02;6.25;;;;;;;17.93;57.18;100777.78;5115695;28;20063;-77
2022/10/05 03:24:35;;;;;;;18.67;7.15;;;;;;;17.93;56.85;100772.94;5101260;28;20058;-77
2022/10/05 03:27:21;;;;;;;18.20;7.78;;;;;;;17.85;56.89;100781.41;5114157;28;20487;-83
2022/10/05 03:30:06;;;;;;;17.10;6.97;;;;;;;17.69;57.03;100789.41;5113058;28;20054;-83
2022/10/05 03:32:53;;;;;;;15.02;7.22;;;;;;;17.36;57.10;100764.25;5106623;28;20410;-74
2022/10/05 03:35:41;;;;;;;17.27;7.30;;;;;;;17.35;57.47;100784.34;5112111;28;20043;-75
2022/10/05 03:38:30;;;;;;;16.30;7.57;;;;;;;17.19;57.39;100781.06;5111306;28;20046;-76
2022/10/05 03:41:33;;;;;;;12.45;6.45;;;;;;;17.11;57.38;100782.66;5102330;28;20614;-77
2022/10/05 03:44:11;;;;;;;11.85;6.40;;;;;;;17.16;57.15;100787.34;5086437;28;20043;-76
2022/10/05 03:46:47;;;;;;;13.38;7.38;;;;;;;17.08;57.21;100786.13;5110453;28;20074;-77
2022/10/05 03:49:34;;;;;;;15.05;6.72;;;;;;;17.07;57.08;100790.09;5109457;28;20043;-77
2022/10/05 03:52:11;;;;;;;13.70;7.88;;;;;;;16.90;57.06;100754.13;5112289;27;20154;-77
2022/10/05 03:54:47;;;;;;;13.65;6.80;;;;;;;17.01;57.02;100774.44;5103074;28;20052;-81
2022/10/05 03:57:25;;;;;;;16.50;7.95;;;;;;;17.12;57.56;100789.97;5113887;28;20051;-82
2022/10/05 04:00:11;;;;;;;12.27;6.97;;;;;;;16.92;57.12;100773.53;5110161;28;20051;-83
2022/10/05 04:02:56;;;;;;;14.50;7.57;;;;;;;16.90;57.10;100770.22;5109528;28;20051;-83
2022/10/05 04:05:28;;;;;;;16.38;7.28;;;;;;;16.91;57.66;100798.09;5109478;28;20043;-83
2022/10/05 04:08:00;;;;;;;12.45;6.57;;;;;;;16.87;57.92;100790.59;5114945;28;20048;-83
2022/10/05 04:10:34;;;;;;;14.02;7.63;;;;;;;16.96;58.32;100797.16;5105753;28;20051;-83
2022/10/05 04:13:14;;;;;;;12.60;7.65;;;;;;;16.89;57.94;100776.97;5111061;28;20057;-83
2022/10/05 04:16:05;;;;;;;16.35;7.82;;;;;;;16.86;57.96;100795.41;5109074;28;20521;-83
2022/10/05 04:18:46;;;;;;;12.65;7.28;;;;;;;16.66;58.21;100798.66;5106304;28;20055;-84
2022/10/05 04:21:48;;;;;;;19.10;7.03;;;;;;;16.53;58.41;100806.78;5100884;28;20421;-85
2022/10/05 04:24:31;;;;;;;13.90;7.65;;;;;;;16.53;58.26;100812.44;5107795;28;20047;-84
2022/10/05 04:27:02;;;;;;;12.25;5.97;;;;;;;16.46;57.85;100806.38;5120366;28;20031;-82
2022/10/05 04:30:11;;;;;;;15.30;6.70;;;;;;;16.28;58.24;100787.59;5135505;28;20023;-82
2022/10/05 04:32:42;;;;;;;10.85;6.65;;;;;;;16.29;57.88;100787.28;5121049;28;20052;-83
2022/10/05 04:35:14;;;;;;;11.70;6.47;;;;;;;16.45;57.66;100813.16;5122852;28;20051;-84
2022/10/05 04:37:59;;;;;;;12.77;7.95;;;;;;;16.49;57.95;100813.38;5119530;28;20043;-84
2022/10/05 04:40:32;;;;;;;13.32;8.07;;;;;;;16.57;58.11;100807.00;5104237;28;20090;-77
2022/10/05 04:43:23;;;;;;;12.80;6.97;;;;;;;16.67;58.70;100809.59;5107524;28;20046;-78
2022/10/05 04:45:49;;;;;;;14.30;7.68;;;;;;;16.74;58.30;100815.66;5105818;28;20054;-77
2022/10/05 04:48:19;;;;;;;11.50;7.20;;;;;;;16.74;58.47;100814.81;5107343;28;20146;-81
2022/10/05 04:50:58;;;;;;;14.40;6.80;;;;;;;16.57;58.09;100810.63;5109325;28;20051;-77
2022/10/05 04:54:05;;;;;;;12.48;7.65;;;;;;;16.42;58.27;100807.34;5111336;28;20051;-76
2022/10/05 04:56:38;;;;;;;13.82;6.63;;;;;;;16.50;57.91;100813.06;5098729;28;20047;-76
2022/10/05 04:59:49;;;;;;;13.07;6.53;;;;;;;16.43;57.96;100809.00;5108857;28;20066;-76
2022/10/05 05:02:23;;;;;;;11.40;6.18;;;;;;;16.44;57.74;100805.84;5104282;28;20047;-74
2022/10/05 05:05:09;;;;;;;13.43;6.15;;;;;;;16.51;58.01;100830.78;5105322;28;20050;-76
2022/10/05 05:07:47;;;;;;;20.30;7.82;;;;;;;16.41;57.83;100817.78;5111270;28;20264;-76
2022/10/05 05:10:23;;;;;;;13.90;6.50;;;;;;;16.30;58.04;100825.56;5109726;28;20050;-78
2022/10/05 05:12:59;;;;;;;13.80;6.35;;;;;;;16.30;58.21;100821.94;5101106;28;20066;-77
2022/10/05 05:15:49;;;;;;;14.60;6.72;;;;;;;16.17;58.40;100803.03;5108343;28;20051;-80
2022/10/05 05:18:25;;;;;;;11.20;6.65;;;;;;;16.32;58.64;100819.66;5110231;28;20048;-80
2022/10/05 05:21:01;;;;;;;13.68;7.07;;;;;;;16.43;58.86;100823.09;5112859;28;20130;-80
2022/10/05 05:23:38;;;;;;;15.52;7.32;;;;;;;16.51;58.64;100827.97;5111616;28;20055;-80
2022/10/05 05:26:38;;;;;;;16.02;8.18;;;;;;;16.54;58.67;100839.47;5107872;28;20047;-80
2022/10/05 05:29:29;;;;;;;12.55;6.32;;;;;;;16.66;58.73;100827.66;5110035;28;20043;-75
2022/10/05 05:31:59;;;;;;;14.15;6.90;;;;;;;16.76;58.86;100830.31;5107029;27;20070;-75
2022/10/05 05:34:54;;;;;;;16.98;7.60;;;;;;;16.75;58.69;100811.72;5111611;28;20055;-76
2022/10/05 05:37:27;;;;;;;15.77;6.60;;;;;;;16.91;58.50;100822.66;5103904;28;20055;-75
2022/10/05 05:40:02;;;;;;;12.95;7.43;;;;;;;17.01;58.62;100828.06;5110726;28;20036;-75
2022/10/05 05:42:42;;;;;;;13.18;7.20;;;;;;;17.03;58.63;100837.03;5111357;28;20044;-75
2022/10/05 05:45:19;;;;;;;20.52;8.27;;;;;;;16.98;58.76;100823.88;5108561;28;20052;-75
2022/10/05 05:47:52;;;;;;;16.95;7.10;;;;;;;16.93;58.55;100828.81;5098618;28;20053;-75
2022/10/05 05:50:37;;;;;;;12.63;7.38;;;;;;;16.92;58.81;100838.41;5106184;28;20427;-78
2022/10/05 05:53:15;;;;;;;11.77;6.80;;;;;;;16.89;58.44;100827.75;5114711;28;20077;-73
2022/10/05 05:55:49;;;;;;;12.45;7.05;;;;;;;16.59;58.90;100808.34;5107672;27;20052;-77
2022/10/05 05:58:16;;;;;;;14.48;6.43;;;;;;;16.71;59.13;100838.81;5106059;28;20070;-76
2022/10/05 06:00:52;;;;;;;13.73;7.20;;;;;;;16.65;59.19;100840.09;5106867;28;20493;-76
2022/10/05 06:03:19;;;;;;;17.67;7.95;;;;;;;16.71;58.85;100841.66;5102427;28;20102;-76
2022/10/05 06:05:51;;;;;;;16.67;6.63;;;;;;;16.73;58.79;100830.91;5106041;28;20116;-77
2022/10/05 06:08:42;;;;;;;13.77;6.90;;;;;;;16.83;58.44;100837.50;5100780;28;20406;-76
2022/10/05 06:11:16;;;;;;;11.95;6.93;;;;;;;16.79;58.15;100832.50;5103869;28;20051;-74
2022/10/05 06:13:44;;;;;;;14.63;7.38;;;;;;;16.68;58.68;100831.00;5098492;28;20051;-76
2022/10/05 06:16:23;;;;;;;11.77;6.32;;;;;;;16.60;58.81;100843.03;5103375;28;20063;-72
2022/10/05 06:18:57;;;;;;;11.20;6.05;;;;;;;16.41;59.24;100845.09;5098302;28;20502;-75
2022/10/05 06:21:33;;;;;;;13.27;6.53;;;;;;;16.09;59.84;100822.31;5101409;28;20056;-75
2022/10/05 06:24:23;;;;;;;12.35;6.70;;;;;;;16.23;59.95;100853.34;5096993;28;20048;-75
2022/10/05 06:27:01;;;;;;;13.13;6.93;;;;;;;16.22;59.84;100856.47;5085232;28;20055;-75
2022/10/05 06:29:46;;;;;;;16.88;7.20;;;;;;;16.23;59.74;100844.88;5108884;28;20044;-74
2022/10/05 06:32:27;;;;;;;10.63;6.15;;;;;;;16.28;60.22;100841.16;5100669;27;20048;-75
2022/10/05 06:35:06;;;;;;;11.65;7.05;;;;;;;16.33;59.87;100849.50;5103798;28;20044;-76
2022/10/05 06:37:55;;;;;;;15.77;7.65;;;;;;;16.32;59.97;100854.28;5099812;28;20051;-76
2022/10/05 06:40:56;;;;;;;14.57;7.65;;;;;;;16.20;59.85;100845.50;5103782;28;20044;-76
2022/10/05 06:43:38;;;;;;;10.98;6.20;;;;;;;16.19;59.96;100852.28;5102829;28;20071;-76
2022/10/05 06:46:17;;;;;;;13.75;7.88;;;;;;;16.21;60.17;100864.09;5104709;28;20166;-75
2022/10/05 06:49:17;;;;;;;17.55;7.85;;;;;;;16.09;59.95;100860.94;5105851;28;20498;-75
2022/10/05 06:51:49;;;;;;;14.02;7.65;;;;;;;16.29;59.84;100866.19;5079407;28;20052;-77
2022/10/05 06:54:28;;;;;;;14.77;7.28;;;;;;;16.31;59.76;100863.91;5109111;28;20051;-76
2022/10/05 06:57:14;;;;;;;17.92;10.32;;;;;;;16.17;59.73;100868.69;5108893;28;20054;-77
2022/10/05 06:59:50;;;;;;;16.38;8.95;;;;;;;16.10;59.93;100882.31;5102279;28;20052;-76
2022/10/05 07:02:28;;;;;;;19.45;10.05;;;;;;;15.96;60.19;100867.38;5104504;28;20052;-78
2022/10/05 07:05:41;;;;;;;18.67;10.68;;;;;;;15.71;60.19;100871.47;5096385;28;20146;-77
2022/10/05 07:08:35;;;;;;;25.67;10.70;;;;;;;15.86;60.28;100874.88;5101152;28;20055;-76
2022/10/05 07:11:19;;;;;;;18.63;10.27;;;;;;;15.84;60.37;100882.78;5111279;28;20070;-77
2022/10/05 07:14:02;;;;;;;18.25;10.32;;;;;;;15.82;60.19;100889.88;5105965;28;20264;-76
2022/10/05 07:16:50;;;;;;;18.05;9.90;;;;;;;15.83;60.36;100892.41;5107302;28;20047;-77
2022/10/05 07:19:39;;;;;;;18.27;10.33;;;;;;;15.87;60.29;100901.88;5105294;28;20490;-77
2022/10/05 07:22:28;;;;;;;19.60;10.20;;;;;;;15.84;60.19;100904.50;5111340;28;20059;-76
2022/10/05 07:25:20;;;;;;;25.90;15.10;;;;;;;15.93;60.36;100905.47;5106656;28;20083;-76
2022/10/05 07:28:04;;;;;;;28.92;15.65;;;;;;;15.95;60.40;100908.78;5100498;28;20055;-78
2022/10/05 07:30:43;;;;;;;26.85;15.05;;;;;;;16.22;60.14;100918.47;5099523;28;20052;-76
2022/10/05 07:33:20;;;;;;;20.23;12.70;;;;;;;16.32;59.72;100927.56;5096423;28;20093;-76
2022/10/05 07:39:04;;;;;;;22.30;12.75;;;;;;;16.90;58.93;100931.00;5104005;28;20083;-76
2022/10/05 07:41:44;;;;;;;28.00;12.70;;;;;;;17.05;58.51;100934.31;5098691;28;20473;-76
2022/10/05 07:44:37;;;;;;;18.45;11.20;;;;;;;17.21;58.42;100929.19;5103596;28;21076;-82
2022/10/05 07:47:12;;;;;;;18.65;9.98;;;;;;;17.11;58.31;100883.41;5109741;28;20082;-74
2022/10/05 07:49:42;;;;;;;19.63;11.43;;;;;;;17.67;58.26;100944.22;5106255;28;20059;-80
2022/10/05 07:52:17;;;;;;;18.75;12.02;;;;;;;17.78;58.24;100942.88;5101893;28;20062;-76
2022/10/05 07:54:52;;;;;;;16.35;9.82;;;;;;;17.92;58.05;100938.00;5104311;28;20134;-81
2022/10/05 07:57:28;;;;;;;15.93;8.65;;;;;;;18.11;57.46;100929.31;5098115;28;20048;-81
2022/10/05 08:00:12;;;;;;;20.08;8.95;;;;;;;18.39;57.51;100938.47;5108100;28;20047;-80
2022/10/05 08:03:10;;;;;;;16.90;9.85;;;;;;;18.66;57.12;100939.44;5102650;28;20418;-79
2022/10/05 08:05:41;;;;;;;12.98;8.57;;;;;;;18.97;56.56;100952.72;5104999;28;20062;-82
2022/10/05 08:08:11;;;;;;;15.02;8.48;;;;;;;19.20;56.62;100957.13;5096438;28;20050;-82
2022/10/05 08:10:54;;;;;;;15.70;9.75;;;;;;;19.37;56.54;100956.34;5101838;28;20052;-80
2022/10/05 08:13:42;;;;;;;19.70;9.52;;;;;;;19.36;56.13;100924.38;5103395;28;20054;-79
2022/10/05 08:16:13;;;;;;;18.23;9.55;;;;;;;19.74;55.60;100948.44;5103010;28;20506;-80
2022/10/05 08:18:58;;;;;;;14.77;9.35;;;;;;;20.02;55.26;100969.59;5097120;28;20048;-78
2022/10/05 08:21:40;;;;;;;17.48;9.93;;;;;;;20.09;55.01;100955.72;5100027;28;20044;-80
2022/10/05 08:24:19;;;;;;;17.48;9.65;;;;;;;20.44;54.54;100972.69;5105302;28;20055;-80
2022/10/05 08:26:58;;;;;;;16.43;9.90;;;;;;;20.48;54.50;100945.34;5093965;28;20047;-81
2022/10/05 08:29:36;;;;;;;15.60;9.23;;;;;;;20.74;54.16;100958.63;5102389;28;20056;-81
2022/10/05 08:32:14;;;;;;;14.48;9.98;;;;;;;21.14;53.49;100978.16;5106145;28;20047;-81
2022/10/05 08:34:50;;;;;;;12.30;8.52;;;;;;;21.20;53.39;100968.28;5101973;28;20052;-82
2022/10/05 08:37:28;;;;;;;22.17;12.57;;;;;;;21.53;52.62;101003.34;5100892;28;20054;-81
2022/10/05 08:40:13;;;;;;;15.68;10.82;;;;;;;21.65;52.36;100991.25;5102123;28;20092;-81
2022/10/05 08:42:40;;;;;;;15.35;9.32;;;;;;;21.85;52.24;101003.81;5107512;28;20051;-81
2022/10/05 08:45:52;;;;;;;17.30;10.52;;;;;;;21.94;51.92;100984.66;5100758;28;20054;-80
2022/10/05 08:48:56;;;;;;;28.70;12.13;;;;;;;22.24;51.96;100999.66;5097904;28;20054;-80
2022/10/05 08:51:26;;;;;;;17.52;11.45;;;;;;;22.69;51.14;101001.69;5101312;28;20059;-80
2022/10/05 08:54:08;;;;;;;19.83;10.77;;;;;;;23.03;50.66;101001.69;5100092;28;20044;-80
2022/10/05 08:56:52;;;;;;;18.45;11.15;;;;;;;23.24;50.15;100985.31;5103688;28;20413;-79
2022/10/05 08:59:56;;;;;;;20.27;13.25;;;;;;;23.64;49.29;101004.53;5109210;28;20036;-80
2022/10/05 09:02:51;;;;;;;17.00;10.20;;;;;;;23.95;49.09;100995.34;5122199;28;20052;-80
2022/10/05 09:05:36;;;;;;;25.23;11.80;;;;;;;24.43;48.27;101009.81;5115268;28;20047;-81
2022/10/05 09:08:22;;;;;;;20.80;10.98;;;;;;;24.71;47.28;100995.50;5125180;28;20047;-80
2022/10/05 09:11:02;;;;;;;17.67;10.68;;;;;;;24.89;47.16;101007.41;5109853;28;20051;-81
2022/10/05 09:13:30;;;;;;;19.05;10.50;;;;;;;25.34;45.86;101029.06;5098592;28;20137;-81
2022/10/05 09:16:31;;;;;;;15.20;9.95;;;;;;;25.66;45.29;101024.94;5093242;28;20075;-80
2022/10/05 09:19:01;;;;;;;15.43;9.75;;;;;;;26.02;44.78;101022.94;5098138;28;20064;-83
2022/10/05 09:21:40;;;;;;;16.55;10.23;;;;;;;26.18;43.91;101023.69;5093729;28;20141;-80
2022/10/05 09:24:13;;;;;;;14.13;8.80;;;;;;;26.56;43.30;101029.81;5095795;28;20051;-81
2022/10/05 09:26:41;;;;;;;14.80;8.38;;;;;;;26.97;42.03;101039.63;5096920;28;20055;-81
2022/10/05 09:29:56;;;;;;;15.57;8.52;;;;;;;27.07;41.52;101004.59;5102101;28;20087;-81
2022/10/05 09:32:43;;;;;;;14.20;9.43;;;;;;;27.54;40.74;101020.59;5084471;28;20063;-81
2022/10/05 09:35:20;;;;;;;14.70;8.95;;;;;;;27.69;40.34;101015.06;5101190;28;20069;-81
2022/10/05 09:37:46;;;;;;;12.27;8.32;;;;;;;28.06;39.75;101032.47;5097908;28;20056;-81
2022/10/05 09:40:22;;;;;;;15.52;7.95;;;;;;;28.29;39.32;101023.75;5102381;28;20051;-80
2022/10/05 09:43:19;;;;;;;10.65;7.57;;;;;;;28.51;39.03;101033.47;5110528;28;20486;-82
2022/10/05 09:45:47;;;;;;;15.38;8.18;;;;;;;28.70;38.36;101036.19;5101166;28;20450;-81
2022/10/05 09:48:44;;;;;;;11.43;6.45;;;;;;;28.66;38.10;100977.03;5108818;28;20089;-81
2022/10/05 09:51:35;;;;;;;11.32;7.47;;;;;;;29.13;37.91;101024.31;5084562;28;20433;-82
2022/10/05 09:54:20;;;;;;;10.90;6.30;;;;;;;29.20;37.45;101018.66;5106799;28;20048;-82
2022/10/05 09:57:13;;;;;;;13.05;7.53;;;;;;;29.16;37.28;100974.63;5103401;28;20067;-81
2022/10/05 10:00:19;;;;;;;14.75;6.10;;;;;;;29.39;37.31;101015.53;5098174;28;20049;-81
2022/10/05 10:03:03;;;;;;;10.65;7.00;;;;;;;29.41;37.19;101018.84;5101220;28;20252;-82
2022/10/05 10:05:33;;;;;;;10.35;7.10;;;;;;;29.70;36.18;101019.06;5104950;28;20052;-80
2022/10/05 10:08:22;;;;;;;10.50;6.97;;;;;;;29.99;35.62;101022.97;5094615;28;20448;-81
2022/10/05 10:11:01;;;;;;;10.30;7.10;;;;;;;30.20;35.81;101008.72;5101558;28;20044;-82
2022/10/05 10:13:39;;;;;;;14.48;6.35;;;;;;;30.39;35.16;101015.38;5098041;28;20070;-82
2022/10/05 10:16:25;;;;;;;14.30;6.78;;;;;;;30.81;34.97;101008.13;5102082;28;20059;-79
2022/10/05 10:18:59;;;;;;;12.93;7.93;;;;;;;31.37;34.42;101024.69;5103576;28;20050;-82
2022/10/05 10:21:59;;;;;;;11.65;6.28;;;;;;;31.59;34.21;101016.00;5104989;28;20039;-82
2022/10/05 10:24:50;;;;;;;18.23;7.18;;;;;;;31.86;33.63;101007.72;5106374;28;20047;-83
2022/10/05 10:27:40;;;;;;;13.02;6.30;;;;;;;31.95;32.93;100982.16;5099999;28;20056;-81
2022/10/05 10:30:46;;;;;;;12.00;6.20;;;;;;;32.41;32.56;101000.53;5102547;28;20494;-81
2022/10/05 10:33:15;;;;;;;11.00;6.03;;;;;;;32.66;31.92;101015.75;5100323;28;20135;-83
2022/10/05 10:36:03;;;;;;;13.98;6.68;;;;;;;32.76;31.72;100996.69;5093122;28;20055;-82
2022/10/05 10:39:05;;;;;;;14.77;6.57;;;;;;;32.92;31.53;100996.13;5098965;28;20075;-82
2022/10/05 10:42:12;;;;;;;11.23;6.38;;;;;;;33.15;31.27;100987.72;5105380;28;20044;-82
2022/10/05 10:44:57;;;;;;;13.65;6.55;;;;;;;33.53;30.48;100995.72;5101218;28;20079;-83
2022/10/05 10:47:42;;;;;;;15.13;6.38;;;;;;;33.79;29.93;100997.13;5104747;28;20055;-83
2022/10/05 10:50:27;;;;;;;13.23;6.72;;;;;;;33.92;29.96;100995.31;5098085;28;20138;-82
2022/10/05 10:54:01;;;;;;;12.38;7.32;;;;;;;33.95;30.03;100995.28;5100279;28;20051;-83
2022/10/05 10:56:46;;;;;;;14.52;6.50;;;;;;;34.04;29.63;100968.69;5002531;28;20131;-82
2022/10/05 10:59:45;;;;;;;11.98;7.00;;;;;;;34.48;28.92;101001.69;5100710;28;20105;-82
2022/10/05 11:02:41;;;;;;;9.90;5.80;;;;;;;34.61;28.55;100999.88;5103745;28;20058;-83
2022/10/05 11:05:36;;;;;;;11.27;6.78;;;;;;;35.38;27.87;101002.00;5111440;28;20520;-83
2022/10/05 11:08:21;;;;;;;12.30;6.40;;;;;;;36.68;26.85;100998.22;5110689;28;20344;-83
2022/10/05 11:11:21;;;;;;;8.32;5.15;;;;;;;36.85;25.96;100996.16;5108181;28;20101;-83
2022/10/05 11:14:15;;;;;;;10.75;5.03;;;;;;;36.36;26.80;101004.75;5112067;28;20051;-83
2022/10/05 11:17:15;;;;;;;6.47;3.35;;;;;;;36.20;26.76;101002.56;5096010;28;20063;-82
2022/10/05 11:20:04;;;;;;;9.90;3.13;;;;;;;36.38;26.19;100990.59;5104797;28;20054;-82
2022/10/05 11:22:41;;;;;;;9.13;3.45;;;;;;;36.36;26.32;101001.81;5103366;28;20112;-82
2022/10/05 11:25:32;;;;;;;8.82;3.90;;;;;;;36.59;26.74;100991.41;5106109;28;20521;-82
2022/10/05 11:28:38;;;;;;;7.75;4.30;;;;;;;36.64;25.94;100974.22;5104521;28;20040;-83
2022/10/05 11:31:11;;;;;;;10.50;3.55;;;;;;;37.09;25.83;100993.13;5113026;28;20052;-82
2022/10/05 11:33:41;;;;;;;6.28;3.33;;;;;;;37.10;25.42;101003.53;5105655;28;20452;-82
2022/10/05 11:36:36;;;;;;;4.78;3.30;;;;;;;37.15;25.49;100980.50;5103729;28;20043;-83
2022/10/05 11:39:22;;;;;;;7.88;4.18;;;;;;;37.21;25.60;100992.44;5110877;28;20052;-81
2022/10/05 11:42:06;;;;;;;9.05;4.18;;;;;;;37.09;25.92;100982.31;5106533;28;20044;-82
2022/10/05 11:44:58;;;;;;;10.73;5.45;;;;;;;37.13;26.00;100974.31;5115512;28;20498;-81
2022/10/05 11:47:38;;;;;;;7.15;4.18;;;;;;;37.32;25.75;100960.94;5112127;28;20048;-81
2022/10/05 11:50:31;;;;;;;8.30;4.72;;;;;;;37.25;25.55;100923.25;5095789;28;20055;-82
2022/10/05 11:53:21;;;;;;;5.07;3.75;;;;;;;37.62;25.21;100988.06;5104202;28;20142;-81
2022/10/05 11:55:59;;;;;;;7.97;4.43;;;;;;;37.50;25.92;100994.63;5088246;28;20048;-80
2022/10/05 11:58:32;;;;;;;8.55;4.40;;;;;;;37.20;25.25;100936.28;5108958;28;20052;-82
2022/10/05 12:01:33;;;;;;;5.97;4.00;;;;;;;37.38;26.04;100987.41;5111009;28;20048;-83
2022/10/05 12:04:26;;;;;;;8.38;4.90;;;;;;;37.14;25.98;100940.19;5093123;28;20052;-83
2022/10/05 12:07:06;;;;;;;8.05;4.07;;;;;;;37.35;25.48;100977.50;5112564;28;20409;-83
2022/10/05 12:10:12;;;;;;;6.20;3.67;;;;;;;37.74;25.15;100949.41;5107714;28;20410;-82
2022/10/05 12:12:35;;;;;;;8.80;3.85;;;;;;;37.89;24.52;100956.47;5094955;28;20055;-80
2022/10/05 12:15:09;;;;;;;8.70;3.97;;;;;;;38.19;24.46;100948.56;5096661;28;20064;-81
2022/10/05 12:17:46;;;;;;;7.38;3.67;;;;;;;38.45;24.27;100977.81;5106082;28;20043;-82
2022/10/05 12:20:39;;;;;;;10.77;3.40;;;;;;;38.60;24.30;100950.63;5105496;28;20048;-82
2022/10/05 12:23:23;;;;;;;5.88;2.92;;;;;;;38.91;23.77;100961.78;5112700;28;20047;-81
2022/10/05 12:26:00;;;;;;;9.10;3.30;;;;;;;39.03;23.44;100954.28;5114332;28;20048;-82
2022/10/05 12:28:48;;;;;;;11.02;3.25;;;;;;;39.49;23.27;100966.47;5103781;28;20051;-81